sensor_id;sensor_type;location;lat;lon;timestamp;temperature;humidity
7155;DHT22;3619;53.784;10.440;2022-12-31T00:02:06;10.50;99.90
7155;DHT22;3619;53.784;10.440;2022-12-31T00:04:34;10.50;99.90
7155;DHT22;3619;53.784;10.440;2022-12-31T00:07:05;10.50;99.90
7155;DHT22;3619;53.784;10.440;2022-12-31T00:09:33;10.50;99.90
7155;DHT22;3619;53.784;10.440;2022-12-31T00:12:01;10.50;99.90
7155;DHT22;3619;53.784;10.440;2022-12-31T00:14:28;10.60;99.90
7155;DHT22;3619;53.784;10.440;2022-12-31T00:16:55;10.60;99.90
7155;DHT22;3619;53.784;10.440;2022-12-31T00:19:22;10.60;99.90
7155;DHT22;3619;53.784;10.440;2022-12-31T00:21:49;10.70;99.90
7155;DHT22;3619;53.784;10.440;2022-12-31T00:24:17;10.60;99.90
7155;DHT22;3619;53.784;10.440;2022-12-31T00:26:46;10.50;99.90
7155;DHT22;3619;53.784;10.440;2022-12-31T00:29:15;10.50;99.90
7155;DHT22;3619;53.784;10.440;2022-12-31T00:31:41;10.50;99.90
7155;DHT22;3619;53.784;10.440;2022-12-31T00:34:08;10.50;99.90
7155;DHT22;3619;53.784;10.440;2022-12-31T00:36:37;10.50;99.90
7155;DHT22;3619;53.784;10.440;2022-12-31T00:39:12;10.50;99.90
7155;DHT22;3619;53.784;10.440;2022-12-31T00:41:40;10.60;99.90
7155;DHT22;3619;53.784;10.440;2022-12-31T00:44:10;10.70;99.90
7155;DHT22;3619;53.784;10.440;2022-12-31T00:46:37;10.70;99.90
7155;DHT22;3619;53.784;10.440;2022-12-31T00:49:04;10.80;99.90
7155;DHT22;3619;53.784;10.440;2022-12-31T00:51:31;10.80;99.90
7155;DHT22;3619;53.784;10.440;2022-12-31T00:54:04;10.80;99.90
7155;DHT22;3619;53.784;10.440;2022-12-31T00:56:31;10.80;99.90
7155;DHT22;3619;53.784;10.440;2022-12-31T01:02:24;10.90;99.90
7155;DHT22;3619;53.784;10.440;2022-12-31T01:05:01;10.90;99.90
7155;DHT22;3619;53.784;10.440;2022-12-31T01:08:10;11.00;99.90
7155;DHT22;3619;53.784;10.440;2022-12-31T01:10:27;11.00;99.90
7155;DHT22;3619;53.784;10.440;2022-12-31T01:13:15;11.00;99.90
7155;DHT22;3619;53.784;10.440;2022-12-31T01:15:42;10.90;99.90
7155;DHT22;3619;53.784;10.440;2022-12-31T01:18:11;11.00;99.90
7155;DHT22;3619;53.784;10.440;2022-12-31T01:20:42;11.10;99.90
7155;DHT22;3619;53.784;10.440;2022-12-31T01:23:10;11.00;99.90
7155;DHT22;3619;53.784;10.440;2022-12-31T01:25:38;11.00;99.90
7155;DHT22;3619;53.784;10.440;2022-12-31T01:28:06;11.00;99.90
7155;DHT22;3619;53.784;10.440;2022-12-31T01:30:37;11.00;99.90
7155;DHT22;3619;53.784;10.440;2022-12-31T01:33:07;11.00;99.90
7155;DHT22;3619;53.784;10.440;2022-12-31T01:35:39;10.90;99.90
7155;DHT22;3619;53.784;10.440;2022-12-31T01:38:08;11.00;99.90
7155;DHT22;3619;53.784;10.440;2022-12-31T01:40:35;11.00;99.90
7155;DHT22;3619;53.784;10.440;2022-12-31T01:43:14;11.10;99.90
7155;DHT22;3619;53.784;10.440;2022-12-31T01:45:41;11.10;99.90
7155;DHT22;3619;53.784;10.440;2022-12-31T01:48:11;11.10;99.90
7155;DHT22;3619;53.784;10.440;2022-12-31T01:50:43;11.20;99.90
7155;DHT22;3619;53.784;10.440;2022-12-31T01:53:12;11.20;99.90
7155;DHT22;3619;53.784;10.440;2022-12-31T01:55:44;11.20;99.90
7155;DHT22;3619;53.784;10.440;2022-12-31T01:58:16;11.20;99.90
7155;DHT22;3619;53.784;10.440;2022-12-31T02:00:46;11.10;99.90
7155;DHT22;3619;53.784;10.440;2022-12-31T02:03:13;11.10;99.90
7155;DHT22;3619;53.784;10.440;2022-12-31T02:05:48;11.10;99.90
7155;DHT22;3619;53.784;10.440;2022-12-31T02:08:17;11.10;99.90
7155;DHT22;3619;53.784;10.440;2022-12-31T02:10:45;11.10;99.90
7155;DHT22;3619;53.784;10.440;2022-12-31T02:13:12;11.10;99.90
7155;DHT22;3619;53.784;10.440;2022-12-31T02:15:55;11.00;99.90
7155;DHT22;3619;53.784;10.440;2022-12-31T02:18:29;11.10;99.90
7155;DHT22;3619;53.784;10.440;2022-12-31T02:24:16;11.10;99.90
7155;DHT22;3619;53.784;10.440;2022-12-31T02:26:54;11.20;99.90
7155;DHT22;3619;53.784;10.440;2022-12-31T02:32:28;11.20;99.90
7155;DHT22;3619;53.784;10.440;2022-12-31T02:34:59;11.20;99.90
7155;DHT22;3619;53.784;10.440;2022-12-31T02:37:29;11.20;99.90
7155;DHT22;3619;53.784;10.440;2022-12-31T02:39:57;11.20;99.90
7155;DHT22;3619;53.784;10.440;2022-12-31T02:42:24;11.30;99.90
7155;DHT22;3619;53.784;10.440;2022-12-31T02:44:56;11.30;99.90
7155;DHT22;3619;53.784;10.440;2022-12-31T02:47:33;11.30;99.90
7155;DHT22;3619;53.784;10.440;2022-12-31T02:50:23;11.30;99.90
7155;DHT22;3619;53.784;10.440;2022-12-31T02:52:59;11.30;99.90
7155;DHT22;3619;53.784;10.440;2022-12-31T02:55:36;11.30;99.90
7155;DHT22;3619;53.784;10.440;2022-12-31T02:58:12;11.30;99.90
7155;DHT22;3619;53.784;10.440;2022-12-31T03:00:45;11.30;99.90
7155;DHT22;3619;53.784;10.440;2022-12-31T03:03:33;11.30;99.90
7155;DHT22;3619;53.784;10.440;2022-12-31T03:06:02;11.30;99.90
7155;DHT22;3619;53.784;10.440;2022-12-31T03:08:29;11.30;99.90
7155;DHT22;3619;53.784;10.440;2022-12-31T03:10:58;11.30;99.90
7155;DHT22;3619;53.784;10.440;2022-12-31T03:13:46;11.30;99.90
7155;DHT22;3619;53.784;10.440;2022-12-31T03:16:26;11.30;99.90
7155;DHT22;3619;53.784;10.440;2022-12-31T03:18:54;11.30;99.90
7155;DHT22;3619;53.784;10.440;2022-12-31T03:21:40;11.40;99.90
7155;DHT22;3619;53.784;10.440;2022-12-31T03:24:25;11.30;99.90
7155;DHT22;3619;53.784;10.440;2022-12-31T03:27:12;11.30;99.90
7155;DHT22;3619;53.784;10.440;2022-12-31T03:29:39;11.40;99.90
7155;DHT22;3619;53.784;10.440;2022-12-31T03:32:07;11.30;99.90
7155;DHT22;3619;53.784;10.440;2022-12-31T03:34:35;11.30;99.90
7155;DHT22;3619;53.784;10.440;2022-12-31T03:37:06;11.30;99.90
7155;DHT22;3619;53.784;10.440;2022-12-31T03:39:33;11.20;99.90
7155;DHT22;3619;53.784;10.440;2022-12-31T03:42:00;11.20;99.90
7155;DHT22;3619;53.784;10.440;2022-12-31T03:44:28;11.20;99.90
7155;DHT22;3619;53.784;10.440;2022-12-31T03:46:55;11.20;99.90
7155;DHT22;3619;53.784;10.440;2022-12-31T03:49:24;11.20;99.90
7155;DHT22;3619;53.784;10.440;2022-12-31T03:51:52;11.20;99.90
7155;DHT22;3619;53.784;10.440;2022-12-31T03:54:19;11.20;99.90
7155;DHT22;3619;53.784;10.440;2022-12-31T03:56:47;11.20;99.90
7155;DHT22;3619;53.784;10.440;2022-12-31T03:59:16;11.20;99.90
7155;DHT22;3619;53.784;10.440;2022-12-31T04:01:42;11.40;99.90
7155;DHT22;3619;53.784;10.440;2022-12-31T04:04:09;11.30;99.90
7155;DHT22;3619;53.784;10.440;2022-12-31T04:06:51;11.30;99.90
7155;DHT22;3619;53.784;10.440;2022-12-31T04:09:28;11.30;99.90
7155;DHT22;3619;53.784;10.440;2022-12-31T04:12:13;11.30;99.90
7155;DHT22;3619;53.784;10.440;2022-12-31T04:15:23;11.30;99.90
7155;DHT22;3619;53.784;10.440;2022-12-31T04:17:59;11.30;99.90
7155;DHT22;3619;53.784;10.440;2022-12-31T04:20:36;11.30;99.90
7155;DHT22;3619;53.784;10.440;2022-12-31T04:23:16;11.30;99.90
7155;DHT22;3619;53.784;10.440;2022-12-31T04:25:45;11.30;99.90
7155;DHT22;3619;53.784;10.440;2022-12-31T04:28:11;11.30;99.90
7155;DHT22;3619;53.784;10.440;2022-12-31T04:30:39;11.20;99.90
7155;DHT22;3619;53.784;10.440;2022-12-31T04:33:06;11.20;99.90
7155;DHT22;3619;53.784;10.440;2022-12-31T04:35:34;11.20;99.90
7155;DHT22;3619;53.784;10.440;2022-12-31T04:38:00;11.20;99.90
7155;DHT22;3619;53.784;10.440;2022-12-31T04:40:30;11.10;99.90
7155;DHT22;3619;53.784;10.440;2022-12-31T04:42:57;11.10;99.90
7155;DHT22;3619;53.784;10.440;2022-12-31T04:45:24;11.10;99.90
7155;DHT22;3619;53.784;10.440;2022-12-31T04:47:52;11.10;99.90
7155;DHT22;3619;53.784;10.440;2022-12-31T04:50:30;11.10;99.90
7155;DHT22;3619;53.784;10.440;2022-12-31T04:55:39;11.10;99.90
7155;DHT22;3619;53.784;10.440;2022-12-31T04:59:57;11.10;99.90
7155;DHT22;3619;53.784;10.440;2022-12-31T05:02:24;11.00;99.90
7155;DHT22;3619;53.784;10.440;2022-12-31T05:04:51;11.00;99.90
7155;DHT22;3619;53.784;10.440;2022-12-31T05:07:27;11.00;99.90
7155;DHT22;3619;53.784;10.440;2022-12-31T05:09:54;11.00;99.90
7155;DHT22;3619;53.784;10.440;2022-12-31T05:12:23;11.00;99.90
7155;DHT22;3619;53.784;10.440;2022-12-31T05:15:04;11.00;99.90
7155;DHT22;3619;53.784;10.440;2022-12-31T05:18:10;11.00;99.90
7155;DHT22;3619;53.784;10.440;2022-12-31T05:21:40;11.00;99.90
7155;DHT22;3619;53.784;10.440;2022-12-31T05:24:01;11.00;99.90
7155;DHT22;3619;53.784;10.440;2022-12-31T05:27:12;10.90;99.90
7155;DHT22;3619;53.784;10.440;2022-12-31T05:29:41;10.90;99.90
7155;DHT22;3619;53.784;10.440;2022-12-31T05:32:20;10.90;99.90
7155;DHT22;3619;53.784;10.440;2022-12-31T05:34:48;10.90;99.90
7155;DHT22;3619;53.784;10.440;2022-12-31T05:37:16;10.90;99.90
7155;DHT22;3619;53.784;10.440;2022-12-31T05:39:43;10.90;99.90
7155;DHT22;3619;53.784;10.440;2022-12-31T05:42:12;10.90;99.90
7155;DHT22;3619;53.784;10.440;2022-12-31T05:44:41;11.00;99.90
7155;DHT22;3619;53.784;10.440;2022-12-31T05:47:30;10.90;99.90
7155;DHT22;3619;53.784;10.440;2022-12-31T05:50:17;10.90;99.90
7155;DHT22;3619;53.784;10.440;2022-12-31T05:52:46;10.90;99.90
7155;DHT22;3619;53.784;10.440;2022-12-31T05:55:18;10.90;99.90
7155;DHT22;3619;53.784;10.440;2022-12-31T05:57:48;10.80;99.90
7155;DHT22;3619;53.784;10.440;2022-12-31T06:00:19;10.80;99.90
7155;DHT22;3619;53.784;10.440;2022-12-31T06:02:48;10.80;99.90
7155;DHT22;3619;53.784;10.440;2022-12-31T06:05:16;10.80;99.90
7155;DHT22;3619;53.784;10.440;2022-12-31T06:07:45;10.80;99.90
7155;DHT22;3619;53.784;10.440;2022-12-31T06:10:39;10.80;99.90
7155;DHT22;3619;53.784;10.440;2022-12-31T06:13:07;10.80;99.90
7155;DHT22;3619;53.784;10.440;2022-12-31T06:16:18;10.80;99.90
7155;DHT22;3619;53.784;10.440;2022-12-31T06:27:37;10.80;99.90
7155;DHT22;3619;53.784;10.440;2022-12-31T06:29:16;10.80;99.90
7155;DHT22;3619;53.784;10.440;2022-12-31T06:31:45;10.80;99.90
7155;DHT22;3619;53.784;10.440;2022-12-31T06:34:12;10.80;99.90
7155;DHT22;3619;53.784;10.440;2022-12-31T06:36:40;10.70;99.90
7155;DHT22;3619;53.784;10.440;2022-12-31T06:39:07;10.70;99.90
7155;DHT22;3619;53.784;10.440;2022-12-31T06:41:35;10.70;99.90
7155;DHT22;3619;53.784;10.440;2022-12-31T06:44:08;10.70;99.90
7155;DHT22;3619;53.784;10.440;2022-12-31T06:46:55;10.70;99.90
7155;DHT22;3619;53.784;10.440;2022-12-31T06:49:33;10.70;99.90
7155;DHT22;3619;53.784;10.440;2022-12-31T06:52:14;10.70;99.90
7155;DHT22;3619;53.784;10.440;2022-12-31T06:54:57;10.70;99.90
7155;DHT22;3619;53.784;10.440;2022-12-31T06:57:28;10.70;99.90
7155;DHT22;3619;53.784;10.440;2022-12-31T07:00:06;10.70;99.90
7155;DHT22;3619;53.784;10.440;2022-12-31T07:03:03;10.70;99.90
7155;DHT22;3619;53.784;10.440;2022-12-31T07:05:38;10.70;99.90
7155;DHT22;3619;53.784;10.440;2022-12-31T07:08:28;10.60;99.90
7155;DHT22;3619;53.784;10.440;2022-12-31T07:11:02;10.60;99.90
7155;DHT22;3619;53.784;10.440;2022-12-31T07:13:55;10.60;99.90
7155;DHT22;3619;53.784;10.440;2022-12-31T07:19:55;10.60;99.90
7155;DHT22;3619;53.784;10.440;2022-12-31T07:22:24;10.70;99.90
7155;DHT22;3619;53.784;10.440;2022-12-31T07:24:55;10.60;99.90
7155;DHT22;3619;53.784;10.440;2022-12-31T07:27:41;10.60;99.90
7155;DHT22;3619;53.784;10.440;2022-12-31T07:30:20;10.60;99.90
7155;DHT22;3619;53.784;10.440;2022-12-31T07:33:08;10.50;99.90
7155;DHT22;3619;53.784;10.440;2022-12-31T07:35:43;10.50;99.90
7155;DHT22;3619;53.784;10.440;2022-12-31T07:38:20;10.50;99.90
7155;DHT22;3619;53.784;10.440;2022-12-31T07:40:55;10.50;99.90
7155;DHT22;3619;53.784;10.440;2022-12-31T07:43:31;10.50;99.90
7155;DHT22;3619;53.784;10.440;2022-12-31T07:46:06;10.50;99.90
7155;DHT22;3619;53.784;10.440;2022-12-31T07:48:41;10.50;99.90
7155;DHT22;3619;53.784;10.440;2022-12-31T07:51:11;10.50;99.90
7155;DHT22;3619;53.784;10.440;2022-12-31T07:53:41;10.50;99.90
7155;DHT22;3619;53.784;10.440;2022-12-31T07:56:08;10.50;99.90
7155;DHT22;3619;53.784;10.440;2022-12-31T07:58:53;10.50;99.90
7155;DHT22;3619;53.784;10.440;2022-12-31T08:04:55;10.50;99.90
7155;DHT22;3619;53.784;10.440;2022-12-31T08:07:35;10.50;99.90
7155;DHT22;3619;53.784;10.440;2022-12-31T08:10:07;10.50;99.90
7155;DHT22;3619;53.784;10.440;2022-12-31T08:12:38;10.50;99.90
7155;DHT22;3619;53.784;10.440;2022-12-31T08:15:11;10.50;99.90
7155;DHT22;3619;53.784;10.440;2022-12-31T08:17:38;10.50;99.90
7155;DHT22;3619;53.784;10.440;2022-12-31T08:23:28;10.50;99.90
7155;DHT22;3619;53.784;10.440;2022-12-31T08:26:09;10.50;99.90
7155;DHT22;3619;53.784;10.440;2022-12-31T08:28:56;10.50;99.90
7155;DHT22;3619;53.784;10.440;2022-12-31T08:31:34;10.50;99.90
7155;DHT22;3619;53.784;10.440;2022-12-31T08:34:08;10.50;99.90
7155;DHT22;3619;53.784;10.440;2022-12-31T08:36:46;10.50;99.90
7155;DHT22;3619;53.784;10.440;2022-12-31T08:39:21;10.50;99.90
7155;DHT22;3619;53.784;10.440;2022-12-31T08:41:55;10.50;99.90
7155;DHT22;3619;53.784;10.440;2022-12-31T08:44:31;10.50;99.90
7155;DHT22;3619;53.784;10.440;2022-12-31T08:47:10;10.50;99.90
7155;DHT22;3619;53.784;10.440;2022-12-31T08:49:42;10.50;99.90
7155;DHT22;3619;53.784;10.440;2022-12-31T08:52:17;10.50;99.90
7155;DHT22;3619;53.784;10.440;2022-12-31T08:54:46;10.50;99.90
7155;DHT22;3619;53.784;10.440;2022-12-31T08:57:23;10.50;99.90
7155;DHT22;3619;53.784;10.440;2022-12-31T09:00:06;10.60;99.90
7155;DHT22;3619;53.784;10.440;2022-12-31T09:02:55;10.60;99.90
7155;DHT22;3619;53.784;10.440;2022-12-31T09:05:30;10.70;99.90
7155;DHT22;3619;53.784;10.440;2022-12-31T09:08:08;10.70;99.90
7155;DHT22;3619;53.784;10.440;2022-12-31T09:10:41;10.70;99.90
7155;DHT22;3619;53.784;10.440;2022-12-31T09:13:14;10.80;99.90
7155;DHT22;3619;53.784;10.440;2022-12-31T09:15:49;10.80;99.90
7155;DHT22;3619;53.784;10.440;2022-12-31T09:18:20;10.80;99.90
7155;DHT22;3619;53.784;10.440;2022-12-31T09:20:50;10.90;99.90
7155;DHT22;3619;53.784;10.440;2022-12-31T09:23:24;11.00;99.90
7155;DHT22;3619;53.784;10.440;2022-12-31T09:25:59;11.00;99.90
7155;DHT22;3619;53.784;10.440;2022-12-31T09:28:38;11.00;99.90
7155;DHT22;3619;53.784;10.440;2022-12-31T09:31:15;11.00;99.90
7155;DHT22;3619;53.784;10.440;2022-12-31T09:33:50;11.00;99.90
7155;DHT22;3619;53.784;10.440;2022-12-31T09:36:26;11.00;99.90
7155;DHT22;3619;53.784;10.440;2022-12-31T09:39:06;11.00;99.90
7155;DHT22;3619;53.784;10.440;2022-12-31T09:41:56;11.00;99.90
7155;DHT22;3619;53.784;10.440;2022-12-31T09:48:05;11.10;99.90
7155;DHT22;3619;53.784;10.440;2022-12-31T09:51:01;11.10;99.90
7155;DHT22;3619;53.784;10.440;2022-12-31T09:53:38;11.00;99.90
7155;DHT22;3619;53.784;10.440;2022-12-31T09:56:16;11.00;99.90
7155;DHT22;3619;53.784;10.440;2022-12-31T09:58:53;11.00;99.90
7155;DHT22;3619;53.784;10.440;2022-12-31T10:01:49;11.00;99.90
7155;DHT22;3619;53.784;10.440;2022-12-31T10:04:45;11.00;99.90
7155;DHT22;3619;53.784;10.440;2022-12-31T10:11:21;11.00;99.90
7155;DHT22;3619;53.784;10.440;2022-12-31T10:17:53;11.00;99.90
7155;DHT22;3619;53.784;10.440;2022-12-31T10:20:53;11.00;99.90
7155;DHT22;3619;53.784;10.440;2022-12-31T10:23:45;11.00;99.90
7155;DHT22;3619;53.784;10.440;2022-12-31T10:26:36;11.00;99.90
7155;DHT22;3619;53.784;10.440;2022-12-31T10:29:28;11.00;99.90
7155;DHT22;3619;53.784;10.440;2022-12-31T10:32:19;10.90;99.90
7155;DHT22;3619;53.784;10.440;2022-12-31T10:35:13;11.00;99.90
7155;DHT22;3619;53.784;10.440;2022-12-31T10:37:51;10.90;99.90
7155;DHT22;3619;53.784;10.440;2022-12-31T10:40:25;10.90;99.90
7155;DHT22;3619;53.784;10.440;2022-12-31T10:43:32;11.00;99.90
7155;DHT22;3619;53.784;10.440;2022-12-31T10:46:29;11.00;99.90
7155;DHT22;3619;53.784;10.440;2022-12-31T10:55:22;11.10;99.90
7155;DHT22;3619;53.784;10.440;2022-12-31T11:00:59;11.10;99.90
7155;DHT22;3619;53.784;10.440;2022-12-31T11:03:55;11.10;99.90
7155;DHT22;3619;53.784;10.440;2022-12-31T11:06:51;11.10;99.90
7155;DHT22;3619;53.784;10.440;2022-12-31T11:09:52;11.20;99.90
7155;DHT22;3619;53.784;10.440;2022-12-31T11:12:49;11.20;99.90
7155;DHT22;3619;53.784;10.440;2022-12-31T11:18:39;11.20;99.90
7155;DHT22;3619;53.784;10.440;2022-12-31T11:21:22;11.30;99.90
7155;DHT22;3619;53.784;10.440;2022-12-31T11:23:57;11.30;99.90
7155;DHT22;3619;53.784;10.440;2022-12-31T11:26:47;11.30;99.90
7155;DHT22;3619;53.784;10.440;2022-12-31T11:30:00;11.40;99.90
7155;DHT22;3619;53.784;10.440;2022-12-31T11:32:44;11.40;99.90
7155;DHT22;3619;53.784;10.440;2022-12-31T11:35:21;11.40;99.90
7155;DHT22;3619;53.784;10.440;2022-12-31T11:37:50;11.50;99.90
7155;DHT22;3619;53.784;10.440;2022-12-31T11:40:35;11.60;99.90
7155;DHT22;3619;53.784;10.440;2022-12-31T11:43:18;11.60;99.90
7155;DHT22;3619;53.784;10.440;2022-12-31T11:48:53;11.60;99.90
7155;DHT22;3619;53.784;10.440;2022-12-31T11:51:50;11.70;99.90
7155;DHT22;3619;53.784;10.440;2022-12-31T11:54:50;11.80;99.90
7155;DHT22;3619;53.784;10.440;2022-12-31T11:57:24;11.80;99.90
7155;DHT22;3619;53.784;10.440;2022-12-31T11:59:56;11.90;99.90
7155;DHT22;3619;53.784;10.440;2022-12-31T12:02:26;11.80;99.90
7155;DHT22;3619;53.784;10.440;2022-12-31T12:04:57;11.90;99.90
7155;DHT22;3619;53.784;10.440;2022-12-31T12:07:25;12.00;99.90
7155;DHT22;3619;53.784;10.440;2022-12-31T12:09:53;12.00;99.90
7155;DHT22;3619;53.784;10.440;2022-12-31T12:12:22;12.10;99.90
7155;DHT22;3619;53.784;10.440;2022-12-31T12:14:51;12.20;99.90
7155;DHT22;3619;53.784;10.440;2022-12-31T12:17:26;12.20;99.90
7155;DHT22;3619;53.784;10.440;2022-12-31T12:20:00;12.30;99.90
7155;DHT22;3619;53.784;10.440;2022-12-31T12:22:29;12.40;99.90
7155;DHT22;3619;53.784;10.440;2022-12-31T12:25:01;12.40;99.90
7155;DHT22;3619;53.784;10.440;2022-12-31T12:27:31;12.50;99.90
7155;DHT22;3619;53.784;10.440;2022-12-31T12:30:08;12.50;99.90
7155;DHT22;3619;53.784;10.440;2022-12-31T12:32:37;12.60;99.90
7155;DHT22;3619;53.784;10.440;2022-12-31T12:35:15;12.60;99.90
7155;DHT22;3619;53.784;10.440;2022-12-31T12:37:42;12.70;99.90
7155;DHT22;3619;53.784;10.440;2022-12-31T12:40:21;12.80;99.90
7155;DHT22;3619;53.784;10.440;2022-12-31T12:42:52;12.90;99.90
7155;DHT22;3619;53.784;10.440;2022-12-31T12:45:20;13.00;99.90
7155;DHT22;3619;53.784;10.440;2022-12-31T12:47:53;12.90;99.90
7155;DHT22;3619;53.784;10.440;2022-12-31T12:50:23;13.00;99.90
7155;DHT22;3619;53.784;10.440;2022-12-31T12:53:06;13.00;99.90
7155;DHT22;3619;53.784;10.440;2022-12-31T12:55:43;13.10;99.90
7155;DHT22;3619;53.784;10.440;2022-12-31T12:58:24;13.10;99.90
7155;DHT22;3619;53.784;10.440;2022-12-31T13:01:01;13.10;99.90
7155;DHT22;3619;53.784;10.440;2022-12-31T13:06:40;13.10;99.90
7155;DHT22;3619;53.784;10.440;2022-12-31T13:09:30;13.20;99.90
7155;DHT22;3619;53.784;10.440;2022-12-31T13:12:10;13.20;99.90
7155;DHT22;3619;53.784;10.440;2022-12-31T13:14:45;13.30;99.90
7155;DHT22;3619;53.784;10.440;2022-12-31T13:17:38;13.20;99.90
7155;DHT22;3619;53.784;10.440;2022-12-31T13:22:31;13.20;99.90
7155;DHT22;3619;53.784;10.440;2022-12-31T13:23:25;13.20;99.90
7155;DHT22;3619;53.784;10.440;2022-12-31T13:26:01;13.30;99.90
7155;DHT22;3619;53.784;10.440;2022-12-31T13:28:33;13.30;99.90
7155;DHT22;3619;53.784;10.440;2022-12-31T13:31:13;13.30;99.90
7155;DHT22;3619;53.784;10.440;2022-12-31T13:33:45;13.30;99.90
7155;DHT22;3619;53.784;10.440;2022-12-31T13:36:19;13.40;99.90
7155;DHT22;3619;53.784;10.440;2022-12-31T13:38:51;13.30;99.90
7155;DHT22;3619;53.784;10.440;2022-12-31T13:41:57;13.40;99.90
7155;DHT22;3619;53.784;10.440;2022-12-31T13:44:50;13.40;99.90
7155;DHT22;3619;53.784;10.440;2022-12-31T13:47:29;13.50;99.90
7155;DHT22;3619;53.784;10.440;2022-12-31T13:50:07;13.50;99.90
7155;DHT22;3619;53.784;10.440;2022-12-31T13:52:43;13.40;99.90
7155;DHT22;3619;53.784;10.440;2022-12-31T13:55:14;13.40;99.90
7155;DHT22;3619;53.784;10.440;2022-12-31T13:57:49;13.40;99.90
7155;DHT22;3619;53.784;10.440;2022-12-31T14:00:21;13.40;99.90
7155;DHT22;3619;53.784;10.440;2022-12-31T14:02:58;13.40;99.90
7155;DHT22;3619;53.784;10.440;2022-12-31T14:05:32;13.40;99.90
7155;DHT22;3619;53.784;10.440;2022-12-31T14:08:03;13.40;99.90
7155;DHT22;3619;53.784;10.440;2022-12-31T14:10:40;13.40;99.90
7155;DHT22;3619;53.784;10.440;2022-12-31T14:13:26;13.40;99.90
7155;DHT22;3619;53.784;10.440;2022-12-31T14:16:05;13.40;99.90
7155;DHT22;3619;53.784;10.440;2022-12-31T14:18:42;13.30;99.90
7155;DHT22;3619;53.784;10.440;2022-12-31T14:21:21;13.20;99.90
7155;DHT22;3619;53.784;10.440;2022-12-31T14:23:55;13.20;99.90
7155;DHT22;3619;53.784;10.440;2022-12-31T14:26:27;13.20;99.90
7155;DHT22;3619;53.784;10.440;2022-12-31T14:29:01;13.20;99.90
7155;DHT22;3619;53.784;10.440;2022-12-31T14:31:50;13.20;99.90
7155;DHT22;3619;53.784;10.440;2022-12-31T14:34:29;13.20;99.90
7155;DHT22;3619;53.784;10.440;2022-12-31T14:37:05;13.20;99.90
7155;DHT22;3619;53.784;10.440;2022-12-31T14:39:51;13.20;99.90
7155;DHT22;3619;53.784;10.440;2022-12-31T14:42:27;13.10;99.90
7155;DHT22;3619;53.784;10.440;2022-12-31T14:45:15;13.20;99.90
7155;DHT22;3619;53.784;10.440;2022-12-31T14:47:49;13.20;99.90
7155;DHT22;3619;53.784;10.440;2022-12-31T14:50:21;13.10;99.90
7155;DHT22;3619;53.784;10.440;2022-12-31T14:52:53;13.10;99.90
7155;DHT22;3619;53.784;10.440;2022-12-31T14:55:26;13.00;99.90
7155;DHT22;3619;53.784;10.440;2022-12-31T14:57:55;13.10;99.90
7155;DHT22;3619;53.784;10.440;2022-12-31T15:00:27;13.10;99.90
7155;DHT22;3619;53.784;10.440;2022-12-31T15:02:56;13.20;99.90
7155;DHT22;3619;53.784;10.440;2022-12-31T15:05:26;13.10;99.90
7155;DHT22;3619;53.784;10.440;2022-12-31T15:11:27;13.10;99.90
7155;DHT22;3619;53.784;10.440;2022-12-31T15:14:18;13.10;99.90
7155;DHT22;3619;53.784;10.440;2022-12-31T15:16:55;13.00;99.90
7155;DHT22;3619;53.784;10.440;2022-12-31T15:19:56;13.10;99.90
7155;DHT22;3619;53.784;10.440;2022-12-31T15:22:35;13.10;99.90
7155;DHT22;3619;53.784;10.440;2022-12-31T15:25:14;13.00;99.90
7155;DHT22;3619;53.784;10.440;2022-12-31T15:27:45;13.00;99.90
7155;DHT22;3619;53.784;10.440;2022-12-31T15:30:30;13.00;99.90
7155;DHT22;3619;53.784;10.440;2022-12-31T15:33:02;13.10;99.90
7155;DHT22;3619;53.784;10.440;2022-12-31T15:35:42;13.10;99.90
7155;DHT22;3619;53.784;10.440;2022-12-31T15:38:18;13.10;99.90
7155;DHT22;3619;53.784;10.440;2022-12-31T15:40:46;13.10;99.90
7155;DHT22;3619;53.784;10.440;2022-12-31T15:43:34;13.10;99.90
7155;DHT22;3619;53.784;10.440;2022-12-31T15:46:12;13.10;99.90
7155;DHT22;3619;53.784;10.440;2022-12-31T15:48:43;13.10;99.90
7155;DHT22;3619;53.784;10.440;2022-12-31T15:51:16;13.10;99.90
7155;DHT22;3619;53.784;10.440;2022-12-31T15:53:48;13.20;99.90
7155;DHT22;3619;53.784;10.440;2022-12-31T15:56:30;13.20;99.90
7155;DHT22;3619;53.784;10.440;2022-12-31T15:59:02;13.20;99.90
7155;DHT22;3619;53.784;10.440;2022-12-31T16:01:33;13.20;99.90
7155;DHT22;3619;53.784;10.440;2022-12-31T16:04:02;13.20;99.90
7155;DHT22;3619;53.784;10.440;2022-12-31T16:06:33;13.20;99.90
7155;DHT22;3619;53.784;10.440;2022-12-31T16:09:01;13.20;99.90
7155;DHT22;3619;53.784;10.440;2022-12-31T16:11:28;13.20;99.90
7155;DHT22;3619;53.784;10.440;2022-12-31T16:13:58;13.20;99.90
7155;DHT22;3619;53.784;10.440;2022-12-31T16:16:27;13.10;99.90
7155;DHT22;3619;53.784;10.440;2022-12-31T16:18:56;13.20;99.90
7155;DHT22;3619;53.784;10.440;2022-12-31T16:21:25;13.20;99.90
7155;DHT22;3619;53.784;10.440;2022-12-31T16:23:54;13.20;99.90
7155;DHT22;3619;53.784;10.440;2022-12-31T16:26:23;13.10;99.90
7155;DHT22;3619;53.784;10.440;2022-12-31T16:28:55;13.10;99.90
7155;DHT22;3619;53.784;10.440;2022-12-31T16:31:27;13.10;99.90
7155;DHT22;3619;53.784;10.440;2022-12-31T16:34:05;13.10;99.90
7155;DHT22;3619;53.784;10.440;2022-12-31T16:36:32;13.10;99.90
7155;DHT22;3619;53.784;10.440;2022-12-31T16:39:27;13.10;99.90
7155;DHT22;3619;53.784;10.440;2022-12-31T16:42:16;13.10;99.90
7155;DHT22;3619;53.784;10.440;2022-12-31T16:44:44;13.10;99.90
7155;DHT22;3619;53.784;10.440;2022-12-31T16:47:18;13.10;99.90
7155;DHT22;3619;53.784;10.440;2022-12-31T16:49:47;13.10;99.90
7155;DHT22;3619;53.784;10.440;2022-12-31T16:52:34;13.00;99.90
7155;DHT22;3619;53.784;10.440;2022-12-31T16:55:06;13.00;99.90
7155;DHT22;3619;53.784;10.440;2022-12-31T16:57:34;13.00;99.90
7155;DHT22;3619;53.784;10.440;2022-12-31T17:00:03;13.00;99.90
7155;DHT22;3619;53.784;10.440;2022-12-31T17:02:37;13.00;99.90
7155;DHT22;3619;53.784;10.440;2022-12-31T17:05:17;13.00;99.90
7155;DHT22;3619;53.784;10.440;2022-12-31T17:07:44;13.00;99.90
7155;DHT22;3619;53.784;10.440;2022-12-31T17:10:22;12.90;99.90
7155;DHT22;3619;53.784;10.440;2022-12-31T17:12:53;12.90;99.90
7155;DHT22;3619;53.784;10.440;2022-12-31T17:15:23;12.90;99.90
7155;DHT22;3619;53.784;10.440;2022-12-31T17:17:55;12.80;99.90
7155;DHT22;3619;53.784;10.440;2022-12-31T17:20:26;12.80;99.90
7155;DHT22;3619;53.784;10.440;2022-12-31T17:22:56;12.70;99.90
7155;DHT22;3619;53.784;10.440;2022-12-31T17:25:25;12.70;99.90
7155;DHT22;3619;53.784;10.440;2022-12-31T17:27:55;12.70;99.90
7155;DHT22;3619;53.784;10.440;2022-12-31T17:30:37;12.70;99.90
7155;DHT22;3619;53.784;10.440;2022-12-31T17:33:30;12.60;99.90
7155;DHT22;3619;53.784;10.440;2022-12-31T17:36:12;12.60;99.90
7155;DHT22;3619;53.784;10.440;2022-12-31T17:38:41;12.60;99.90
7155;DHT22;3619;53.784;10.440;2022-12-31T17:41:16;12.60;99.90
7155;DHT22;3619;53.784;10.440;2022-12-31T17:43:50;12.60;99.90
7155;DHT22;3619;53.784;10.440;2022-12-31T17:46:19;12.50;99.90